Time;durP1;ratioP1;P1;durP2;ratioP2;P2;SDS_P1;SDS_P2;PMS_P1;PMS_P2;Temp;Humidity;BMP_temperature;BMP_pressure;BME280_temperature;BME280_humidity;BME280_pressure;Samples;Min_cycle;Max_cycle;Signal;HPM_P1;HPM_P2
2022/12/21 00:01:35;;;;;;;31.08;21.00;;;11.80;86.50;;;;;;5105793;28;20035;-64
2022/12/21 00:04:03;;;;;;;31.67;20.92;;;11.80;86.50;;;;;;5094934;28;20028;-64
2022/12/21 00:06:32;;;;;;;34.20;21.27;;;11.80;86.50;;;;;;5092256;28;20533;-64
2022/12/21 00:08:59;;;;;;;32.88;20.75;;;11.80;86.50;;;;;;5101545;28;20141;-64
2022/12/21 00:11:26;;;;;;;33.78;21.63;;;11.80;86.40;;;;;;5103091;28;20131;-64
2022/12/21 00:13:54;;;;;;;32.58;20.27;;;11.80;86.40;;;;;;5102495;28;20448;-64
2022/12/21 00:16:23;;;;;;;34.25;22.50;;;11.80;86.40;;;;;;5094456;28;20024;-64
2022/12/21 00:18:49;;;;;;;33.15;21.15;;;11.80;86.40;;;;;;5104091;28;20060;-64
2022/12/21 00:21:16;;;;;;;34.75;22.25;;;11.80;86.40;;;;;;5105103;28;20019;-64
2022/12/21 00:23:43;;;;;;;35.20;21.77;;;11.80;86.30;;;;;;5108598;28;20388;-64
2022/12/21 00:26:11;;;;;;;36.47;22.25;;;11.80;86.30;;;;;;5114279;28;20072;-64
2022/12/21 00:28:38;;;;;;;32.40;21.70;;;11.80;86.30;;;;;;5107235;28;20352;-64
2022/12/21 00:31:10;;;;;;;32.78;19.92;;;11.80;87.00;;;;;;5088880;28;20122;-64
2022/12/21 00:33:37;;;;;;;34.88;21.02;;;11.80;86.30;;;;;;5110998;28;20036;-64
2022/12/21 00:36:04;;;;;;;34.03;22.33;;;11.80;86.30;;;;;;5100731;28;20055;-64
2022/12/21 00:38:30;;;;;;;31.92;20.58;;;11.70;86.20;;;;;;5109287;28;20438;-64
2022/12/21 00:41:04;;;;;;;35.22;20.90;;;11.70;86.20;;;;;;5095733;28;20111;-64
2022/12/21 00:43:36;;;;;;;35.35;21.48;;;11.70;86.20;;;;;;5105494;28;20030;-64
2022/12/21 00:46:01;;;;;;;;;;;11.70;86.10;;;;;;5093568;28;20043;-64
2022/12/21 00:48:29;;;;;;;32.15;20.20;;;11.70;86.20;;;;;;5110157;27;19912;-64
2022/12/21 00:51:06;;;;;;;32.80;20.77;;;11.70;86.20;;;;;;5096190;28;20029;-64
2022/12/21 00:53:32;;;;;;;37.47;22.80;;;11.70;86.10;;;;;;5113264;28;20368;-64
2022/12/21 00:56:00;;;;;;;38.58;23.65;;;11.70;86.10;;;;;;5103704;27;20015;-64
2022/12/21 00:58:28;;;;;;;31.33;20.10;;;11.70;86.10;;;;;;5107743;28;20198;-64
2022/12/21 01:00:56;;;;;;;38.70;22.13;;;11.60;86.70;;;;;;5108435;28;20020;-64
2022/12/21 01:03:22;;;;;;;37.03;22.17;;;11.70;86.10;;;;;;5106889;28;20458;-64
2022/12/21 01:05:50;;;;;;;36.78;21.08;;;11.70;86.10;;;;;;5094587;28;20043;-64
2022/12/21 01:08:17;;;;;;;36.47;22.85;;;11.70;86.10;;;;;;5104095;28;20372;-63
2022/12/21 01:10:43;;;;;;;36.00;21.15;;;11.60;86.00;;;;;;5105306;27;20093;-63
2022/12/21 01:13:10;;;;;;;38.70;23.77;;;11.60;86.00;;;;;;5091201;28;20091;-64
2022/12/21 01:15:44;;;;;;;37.72;22.77;;;11.60;86.00;;;;;;5100920;28;20031;-64
2022/12/21 01:18:10;;;;;;;35.85;22.15;;;11.60;86.00;;;;;;5101292;28;20155;-64
2022/12/21 01:20:44;;;;;;;35.50;22.15;;;11.60;86.00;;;;;;5102221;28;20078;-66
2022/12/21 01:23:10;;;;;;;35.90;21.80;;;11.60;86.00;;;;;;5106365;28;20027;-64
2022/12/21 01:25:36;;;;;;;36.95;22.60;;;11.60;86.00;;;;;;5121068;27;20371;-64
2022/12/21 01:28:02;;;;;;;34.78;21.40;;;11.60;86.00;;;;;;5110896;27;20037;-64
2022/12/21 01:30:27;;;;;;;39.20;23.60;;;11.60;86.00;;;;;;5109347;28;20543;-64
2022/12/21 01:32:53;;;;;;;38.08;22.88;;;11.60;86.00;;;;;;5102846;28;20032;-64
2022/12/21 01:35:19;;;;;;;38.80;24.00;;;11.60;85.90;;;;;;5104307;28;20106;-64
2022/12/21 01:37:45;;;;;;;40.13;22.92;;;11.60;85.90;;;;;;5097822;28;20031;-63
2022/12/21 01:40:12;;;;;;;36.55;22.27;;;11.60;85.90;;;;;;5106857;28;20036;-64
2022/12/21 01:42:38;;;;;;;35.17;22.42;;;11.60;85.90;;;;;;5109417;28;20049;-63
2022/12/21 01:45:19;;;;;;;39.00;23.10;;;11.60;85.80;;;;;;5107771;28;20031;-64
2022/12/21 01:47:51;;;;;;;;;;;11.60;85.80;;;;;;5098699;28;20102;-64
2022/12/21 01:50:58;;;;;;;36.03;21.55;;;11.60;85.90;;;;;;5095699;28;20003;-64
2022/12/21 01:53:30;;;;;;;34.65;20.10;;;11.60;85.80;;;;;;5105994;28;20431;-64
2022/12/21 01:55:57;;;;;;;;;;;11.60;85.90;;;;;;5102568;28;20464;-64
2022/12/21 01:58:27;;;;;;;32.33;19.05;;;11.60;85.80;;;;;;5094832;28;19911;-63
2022/12/21 02:00:56;;;;;;;34.67;18.85;;;11.60;85.90;;;;;;5103370;28;20040;-65
2022/12/21 02:03:27;;;;;;;40.90;21.70;;;11.50;85.80;;;;;;5109479;28;20028;-64
2022/12/21 02:05:59;;;;;;;34.63;20.77;;;11.50;85.80;;;;;;5110880;28;20022;-64
2022/12/21 02:08:26;;;;;;;;;;;11.50;85.90;;;;;;5101543;28;20030;-64
2022/12/21 02:10:53;;;;;;;33.78;19.00;;;11.50;85.80;;;;;;5111918;28;19907;-64
2022/12/21 02:13:21;;;;;;;35.85;21.08;;;11.50;85.90;;;;;;5097874;28;20374;-64
2022/12/21 02:15:59;;;;;;;35.10;19.52;;;11.50;85.90;;;;;;5106345;28;20023;-64
2022/12/21 02:18:44;;;;;;;35.70;19.73;;;11.50;85.80;;;;;;5088884;28;20086;-64
2022/12/21 02:21:28;;;;;;;39.30;22.27;;;11.50;85.80;;;;;;5098438;28;20157;-64
2022/12/21 02:24:11;;;;;;;36.25;20.95;;;11.50;85.80;;;;;;5100716;28;20092;-64
2022/12/21 02:27:05;;;;;;;37.60;21.95;;;11.50;85.90;;;;;;5114229;28;20054;-64
2022/12/21 02:30:11;;;;;;;31.15;19.70;;;11.50;85.80;;;;;;5104717;28;20067;-63
2022/12/21 02:32:40;;;;;;;33.53;19.67;;;11.50;85.80;;;;;;5092782;28;20043;-64
2022/12/21 02:35:33;;;;;;;37.67;21.65;;;11.50;85.80;;;;;;5097588;28;20024;-63
2022/12/21 02:37:58;;;;;;;37.38;20.58;;;11.50;85.80;;;;;;5101372;27;20027;-63
2022/12/21 02:40:43;;;;;;;35.75;21.33;;;11.50;85.80;;;;;;5105193;28;20020;-64
2022/12/21 02:46:27;;;;;;;33.70;20.35;;;11.50;85.80;;;;;;5129261;27;20557;-64
2022/12/21 02:49:03;;;;;;;34.40;21.38;;;11.50;85.80;;;;;;5102106;28;20471;-64
2022/12/21 02:51:46;;;;;;;34.35;21.75;;;11.50;85.80;;;;;;5111279;28;20024;-63
2022/12/21 02:54:13;;;;;;;31.50;19.52;;;11.50;85.90;;;;;;5101070;28;20034;-64
2022/12/21 02:56:40;;;;;;;36.20;20.30;;;11.40;85.70;;;;;;5105473;28;20024;-65
2022/12/21 02:59:11;;;;;;;36.92;21.05;;;11.40;85.70;;;;;;5104913;28;20482;-64
2022/12/21 03:01:58;;;;;;;38.38;20.90;;;11.40;85.80;;;;;;5092919;28;20028;-64
2022/12/21 03:05:12;;;;;;;34.03;19.90;;;11.40;85.70;;;;;;5137967;27;20034;-64
2022/12/21 03:07:41;;;;;;;33.47;20.05;;;11.40;85.70;;;;;;5100501;28;20023;-64
2022/12/21 03:10:33;;;;;;;34.20;20.20;;;11.40;85.70;;;;;;5102401;28;20452;-65
2022/12/21 03:13:26;;;;;;;34.05;19.70;;;11.40;85.70;;;;;;5083130;28;20036;-64
2022/12/21 03:16:14;;;;;;;33.08;18.52;;;11.40;85.60;;;;;;5103401;28;20482;-64
2022/12/21 03:19:04;;;;;;;32.30;19.30;;;11.40;85.60;;;;;;5107524;28;20043;-64
2022/12/21 03:21:39;;;;;;;31.73;18.90;;;11.40;85.70;;;;;;5097131;28;20059;-64
2022/12/21 03:24:10;;;;;;;35.15;20.30;;;11.40;85.70;;;;;;5110851;28;20460;-64
2022/12/21 03:26:49;;;;;;;32.73;19.87;;;11.40;85.70;;;;;;5106342;28;20032;-64
2022/12/21 03:29:19;;;;;;;32.10;18.75;;;11.40;85.70;;;;;;5103769;28;20044;-64
2022/12/21 03:31:54;;;;;;;29.25;18.15;;;11.40;85.70;;;;;;5108011;28;20055;-63
2022/12/21 03:34:26;;;;;;;33.97;19.83;;;11.40;85.70;;;;;;5119093;27;20031;-64
2022/12/21 03:37:06;;;;;;;34.83;21.35;;;11.40;85.70;;;;;;5110542;28;20054;-64
2022/12/21 03:39:37;;;;;;;33.03;19.98;;;11.30;85.50;;;;;;5095565;28;20028;-64
2022/12/21 03:42:11;;;;;;;31.38;18.65;;;11.30;85.60;;;;;;5110503;28;20039;-63
2022/12/21 03:44:47;;;;;;;31.40;19.05;;;11.40;85.60;;;;;;5100358;28;20024;-63
2022/12/21 03:47:22;;;;;;;31.95;20.20;;;11.40;85.60;;;;;;5106541;28;20034;-64
2022/12/21 03:49:56;;;;;;;31.85;18.33;;;11.40;85.60;;;;;;5108154;28;20081;-63
2022/12/21 03:52:28;;;;;;;31.95;19.45;;;11.40;85.60;;;;;;5111905;28;20492;-64
2022/12/21 03:55:24;;;;;;;36.80;21.48;;;11.30;85.60;;;;;;5105881;28;20033;-64
2022/12/21 03:57:52;;;;;;;31.17;19.10;;;11.40;85.60;;;;;;5120059;27;20419;-64
2022/12/21 04:00:18;;;;;;;33.70;19.15;;;11.30;85.60;;;;;;5092890;28;20035;-64
2022/12/21 04:02:50;;;;;;;33.92;20.58;;;11.30;85.60;;;;;;5095980;28;20031;-64
2022/12/21 04:05:20;;;;;;;30.77;19.98;;;11.30;85.60;;;;;;5093106;28;20405;-64
2022/12/21 04:07:48;;;;;;;30.85;19.00;;;11.30;85.60;;;;;;5102361;28;20085;-64
2022/12/21 04:10:16;;;;;;;35.17;20.83;;;11.30;85.60;;;;;;5102524;28;20456;-64
2022/12/21 04:12:42;;;;;;;36.63;20.98;;;11.30;85.60;;;;;;5089921;28;20115;-63
2022/12/21 04:15:17;;;;;;;30.90;19.25;;;11.30;85.60;;;;;;5116193;27;20110;-64
2022/12/21 04:17:45;;;;;;;32.40;19.90;;;11.30;85.50;;;;;;5116687;27;20367;-64
2022/12/21 04:20:15;;;;;;;32.50;19.23;;;11.30;85.60;;;;;;5095762;28;20451;-64
2022/12/21 04:28:27;;;;;;;36.05;21.10;;;11.30;85.50;;;;;;5110327;27;20059;-63
2022/12/21 04:30:52;;;;;;;31.05;19.10;;;11.30;85.50;;;;;;5104767;28;20024;-64
2022/12/21 04:33:20;;;;;;;32.30;19.70;;;11.30;85.50;;;;;;5100021;28;20513;-64
2022/12/21 04:38:33;;;;;;;34.13;19.73;;;11.30;85.50;;;;;;5102475;28;20032;-64
2022/12/21 04:40:59;;;;;;;33.72;19.02;;;11.30;85.50;;;;;;5101758;28;20031;-64
2022/12/21 04:43:25;;;;;;;36.15;19.80;;;11.30;85.50;;;;;;5099420;28;20097;-63
2022/12/21 04:46:20;;;;;;;31.98;18.80;;;11.30;85.50;;;;;;5101240;28;20048;-64
2022/12/21 04:48:46;;;;;;;32.03;19.58;;;11.30;85.50;;;;;;5073615;28;20047;-64
2022/12/21 04:51:15;;;;;;;30.88;18.65;;;11.30;85.60;;;;;;5106174;28;20405;-63
2022/12/21 04:53:41;;;;;;;31.63;19.23;;;11.30;85.50;;;;;;5101945;28;20015;-64
2022/12/21 04:56:07;;;;;;;30.92;18.88;;;11.20;85.50;;;;;;5109485;28;20444;-63
2022/12/21 04:58:33;;;;;;;33.03;20.17;;;11.30;85.50;;;;;;5111792;28;20016;-64
2022/12/21 05:01:01;;;;;;;30.00;17.23;;;11.20;85.40;;;;;;5108665;28;20020;-64
2022/12/21 05:03:27;;;;;;;31.25;18.50;;;11.20;85.50;;;;;;5104128;28;20388;-63
2022/12/21 05:05:53;;;;;;;33.97;20.65;;;11.20;85.50;;;;;;5093991;28;20030;-63
2022/12/21 05:08:19;;;;;;;32.53;19.50;;;11.20;85.50;;;;;;5114080;27;20048;-63
2022/12/21 05:10:45;;;;;;;34.47;20.00;;;11.20;85.50;;;;;;5097021;28;20062;-64
2022/12/21 05:13:11;;;;;;;31.83;19.00;;;11.20;85.50;;;;;;5106062;28;20368;-63
2022/12/21 05:15:39;;;;;;;32.03;18.65;;;11.20;85.40;;;;;;5113014;28;20333;-63
2022/12/21 05:18:05;;;;;;;31.10;18.30;;;11.20;85.50;;;;;;5099065;28;20357;-63
2022/12/21 05:20:31;;;;;;;32.50;19.20;;;11.20;85.50;;;;;;5104411;28;20024;-64
2022/12/21 05:22:58;;;;;;;32.50;20.30;;;11.20;85.50;;;;;;5100690;28;20035;-64
2022/12/21 05:25:25;;;;;;;33.30;20.80;;;11.20;85.40;;;;;;5105343;28;20031;-63
2022/12/21 05:27:50;;;;;;;33.00;19.48;;;11.20;85.40;;;;;;5095720;28;20032;-64
2022/12/21 05:30:16;;;;;;;32.20;19.92;;;11.20;85.40;;;;;;5107160;28;20031;-63
2022/12/21 05:32:42;;;;;;;35.80;21.92;;;11.20;85.40;;;;;;5097318;28;20055;-63
2022/12/21 05:35:08;;;;;;;35.35;22.95;;;11.20;85.40;;;;;;5107421;28;20118;-63
2022/12/21 05:37:33;;;;;;;34.67;21.35;;;11.10;85.40;;;;;;5101546;28;20403;-63
2022/12/21 05:39:59;;;;;;;33.45;21.42;;;11.10;85.40;;;;;;5112051;28;20356;-63
2022/12/21 05:42:25;;;;;;;33.70;20.70;;;11.20;85.40;;;;;;5109092;28;20104;-64
2022/12/21 05:44:50;;;;;;;33.67;20.23;;;11.20;85.40;;;;;;5108343;28;20046;-64
2022/12/21 05:47:16;;;;;;;38.15;22.33;;;11.20;85.40;;;;;;5110544;28;20019;-63
2022/12/21 05:49:42;;;;;;;38.90;21.92;;;11.20;85.40;;;;;;5094763;28;20036;-64
2022/12/21 05:52:07;;;;;;;37.67;21.48;;;11.10;85.40;;;;;;5100881;28;20028;-64
2022/12/21 05:54:33;;;;;;;39.03;21.17;;;11.20;85.50;;;;;;5100500;28;20407;-64
2022/12/21 05:56:59;;;;;;;33.70;20.70;;;11.10;85.40;;;;;;5110576;27;20027;-65
2022/12/21 05:59:24;;;;;;;39.22;22.10;;;11.10;85.40;;;;;;5111388;28;20020;-64
2022/12/21 06:01:50;;;;;;;36.75;21.60;;;11.20;85.50;;;;;;5094573;28;20452;-64
2022/12/21 06:04:16;;;;;;;36.78;23.10;;;11.10;85.40;;;;;;5113563;28;20042;-64
2022/12/21 06:06:41;;;;;;;36.45;21.88;;;11.10;85.40;;;;;;5108720;28;20036;-64
2022/12/21 06:09:07;;;;;;;36.83;21.63;;;11.10;85.40;;;;;;5114680;28;20035;-64
2022/12/21 06:11:33;;;;;;;40.30;23.38;;;11.10;85.50;;;;;;5098728;28;20364;-63
2022/12/21 06:13:59;;;;;;;34.08;21.60;;;11.10;85.40;;;;;;5117241;28;20019;-64
2022/12/21 06:16:26;;;;;;;39.13;23.33;;;11.10;85.40;;;;;;5116220;28;20164;-64
2022/12/21 06:18:53;;;;;;;39.17;23.35;;;11.10;85.50;;;;;;5109726;28;20044;-64
2022/12/21 06:21:20;;;;;;;42.05;23.15;;;11.10;85.50;;;;;;5114960;28;20043;-63
2022/12/21 06:23:47;;;;;;;40.53;25.88;;;11.10;85.50;;;;;;5117792;28;20034;-64
2022/12/21 06:26:18;;;;;;;41.65;24.05;;;11.10;85.50;;;;;;5117135;28;20112;-64
2022/12/21 06:28:48;;;;;;;36.13;22.63;;;11.10;85.50;;;;;;5117659;28;20035;-63
2022/12/21 06:31:14;;;;;;;38.88;24.02;;;11.10;85.50;;;;;;5117399;28;20028;-63
2022/12/21 06:33:41;;;;;;;35.55;23.48;;;11.10;85.50;;;;;;5101505;27;20076;-63
2022/12/21 06:36:07;;;;;;;38.17;22.55;;;11.10;85.50;;;;;;5120779;27;20036;-63
2022/12/21 06:38:34;;;;;;;42.35;23.55;;;11.10;85.50;;;;;;5117860;28;20111;-64
2022/12/21 06:41:03;;;;;;;38.03;23.15;;;11.10;85.50;;;;;;5108527;28;20039;-64
2022/12/21 06:43:31;;;;;;;35.17;20.88;;;11.10;85.50;;;;;;5115561;28;20027;-64
2022/12/21 06:45:59;;;;;;;37.97;24.17;;;11.10;85.50;;;;;;5116968;28;20043;-64
2022/12/21 06:48:26;;;;;;;36.78;21.58;;;11.10;85.50;;;;;;5114515;28;20075;-63
2022/12/21 06:50:59;;;;;;;37.33;21.83;;;11.10;85.50;;;;;;5116432;28;20043;-63
2022/12/21 06:53:28;;;;;;;36.25;21.90;;;11.10;85.50;;;;;;5112752;28;20444;-63
2022/12/21 06:56:04;;;;;;;36.33;23.23;;;11.00;85.50;;;;;;5104413;28;20073;-63
2022/12/21 06:58:30;;;;;;;37.47;22.67;;;11.00;85.40;;;;;;5106150;28;20028;-64
2022/12/21 07:00:56;;;;;;;37.80;21.02;;;11.00;85.40;;;;;;5105976;28;20084;-63
2022/12/21 07:03:22;;;;;;;38.00;22.80;;;11.00;85.30;;;;;;5110849;27;20081;-64
2022/12/21 07:05:49;;;;;;;37.55;21.88;;;11.00;85.30;;;;;;5100553;28;20035;-63
2022/12/21 07:08:16;;;;;;;36.80;22.58;;;11.10;85.30;;;;;;5110351;28;20507;-65
2022/12/21 07:10:41;;;;;;;37.08;22.52;;;11.10;85.40;;;;;;5105349;28;20024;-64
2022/12/21 07:13:07;;;;;;;39.40;23.20;;;11.10;85.30;;;;;;5097241;28;20026;-64
2022/12/21 07:15:33;;;;;;;35.08;21.80;;;11.00;85.20;;;;;;5086214;28;20513;-63
2022/12/21 07:17:59;;;;;;;37.03;22.13;;;11.10;85.30;;;;;;5111901;28;20035;-64
2022/12/21 07:20:25;;;;;;;37.58;23.55;;;11.10;85.30;;;;;;5117660;27;20028;-64
2022/12/21 07:22:50;;;;;;;36.63;23.05;;;11.00;85.30;;;;;;5104955;28;20028;-64
2022/12/21 07:25:16;;;;;;;38.78;23.38;;;11.00;85.30;;;;;;5110482;28;20081;-64
2022/12/21 07:27:42;;;;;;;38.10;23.85;;;11.00;85.30;;;;;;5112703;28;20024;-64
2022/12/21 07:30:09;;;;;;;39.55;23.20;;;11.00;85.30;;;;;;5114187;28;20328;-64
2022/12/21 07:32:34;;;;;;;36.42;21.38;;;11.00;85.30;;;;;;5119166;27;20515;-63
2022/12/21 07:35:00;;;;;;;33.20;21.08;;;11.00;85.20;;;;;;5116954;27;20110;-64
2022/12/21 07:37:26;;;;;;;35.55;22.40;;;11.00;85.20;;;;;;5114002;28;20053;-64
2022/12/21 07:39:51;;;;;;;32.75;21.17;;;11.00;85.20;;;;;;5111386;28;20039;-66
2022/12/21 07:42:17;;;;;;;37.53;22.13;;;11.00;85.30;;;;;;5096369;28;20093;-65
2022/12/21 07:44:57;;;;;;;33.95;21.48;;;11.00;85.30;;;;;;5111975;28;20410;-63
2022/12/21 07:47:38;;;;;;;37.03;22.83;;;11.00;85.30;;;;;;5103693;28;20032;-63
2022/12/21 07:50:06;;;;;;;35.90;22.65;;;10.90;85.20;;;;;;5091817;28;20031;-65
2022/12/21 07:52:32;;;;;;;34.78;21.70;;;10.90;85.40;;;;;;5106315;28;20077;-66
2022/12/21 07:54:58;;;;;;;35.60;21.38;;;10.90;85.20;;;;;;5096022;28;20026;-65
2022/12/21 07:57:24;;;;;;;36.00;22.65;;;10.90;85.30;;;;;;5118287;27;20348;-64
2022/12/21 07:59:49;;;;;;;35.95;21.52;;;10.90;85.20;;;;;;5112037;27;20031;-64
2022/12/21 08:02:15;;;;;;;35.67;21.98;;;10.90;85.20;;;;;;5112271;28;20054;-67
2022/12/21 08:04:41;;;;;;;32.85;21.40;;;10.90;85.20;;;;;;5107698;27;20575;-67
2022/12/21 08:07:07;;;;;;;34.25;21.75;;;10.90;85.20;;;;;;5090187;28;20055;-67
2022/12/21 08:09:33;;;;;;;37.67;21.65;;;10.90;85.20;;;;;;5103854;28;20030;-67
2022/12/21 08:11:59;;;;;;;35.40;19.95;;;10.90;85.20;;;;;;5089297;28;20451;-67
2022/12/21 08:14:25;;;;;;;31.95;20.15;;;10.90;85.20;;;;;;5106860;28;20027;-66
2022/12/21 08:16:51;;;;;;;32.83;20.80;;;10.90;85.20;;;;;;5107283;28;20035;-66
2022/12/21 08:19:17;;;;;;;34.22;21.75;;;10.90;85.10;;;;;;5107426;28;20396;-66
2022/12/21 08:21:43;;;;;;;31.70;19.83;;;10.90;85.10;;;;;;5090825;28;20067;-67
2022/12/21 08:24:09;;;;;;;34.80;20.55;;;10.90;85.10;;;;;;5090156;28;20047;-67
2022/12/21 08:26:35;;;;;;;31.38;20.90;;;10.90;85.10;;;;;;5089887;28;20066;-66
2022/12/21 08:29:01;;;;;;;31.75;19.98;;;10.90;85.00;;;;;;5109057;28;20023;-65
2022/12/21 08:31:26;;;;;;;32.80;20.40;;;10.90;85.00;;;;;;5111002;27;20363;-65
2022/12/21 08:33:53;;;;;;;29.40;17.55;;;10.90;84.90;;;;;;5112177;28;20080;-65
2022/12/21 08:36:21;;;;;;;32.33;18.60;;;10.90;84.90;;;;;;5110176;28;20056;-65
2022/12/21 08:38:47;;;;;;;32.05;19.42;;;10.90;84.80;;;;;;5110588;28;20027;-66
2022/12/21 08:41:14;;;;;;;27.92;17.38;;;11.00;84.90;;;;;;5115010;27;20035;-65
2022/12/21 08:43:40;;;;;;;28.25;18.15;;;11.00;84.80;;;;;;5113845;28;20020;-65
2022/12/21 08:46:08;;;;;;;32.72;18.75;;;11.00;84.80;;;;;;5112136;28;20439;-66
2022/12/21 08:48:34;;;;;;;25.65;16.40;;;11.00;84.70;;;;;;5115431;27;20035;-66
2022/12/21 08:51:01;;;;;;;23.73;15.88;;;11.00;84.60;;;;;;5110542;28;20057;-65
2022/12/21 08:53:27;;;;;;;29.33;16.90;;;11.00;84.60;;;;;;5111727;28;20034;-65
2022/12/21 08:55:54;;;;;;;26.92;16.00;;;11.00;84.60;;;;;;5109832;28;20043;-64
2022/12/21 08:58:22;;;;;;;26.13;15.95;;;11.00;84.60;;;;;;5094868;28;20038;-65
2022/12/21 09:00:52;;;;;;;25.83;15.32;;;11.00;84.60;;;;;;5114028;27;20516;-66
2022/12/21 09:03:18;;;;;;;25.80;15.15;;;11.00;84.50;;;;;;5108121;28;20055;-66
2022/12/21 09:05:45;;;;;;;24.65;14.40;;;11.00;84.50;;;;;;5102926;28;20096;-65
2022/12/21 09:08:12;;;;;;;23.42;14.07;;;11.00;84.50;;;;;;5094674;28;20507;-65
2022/12/21 09:10:38;;;;;;;21.10;13.38;;;11.00;84.40;;;;;;5095547;28;20028;-64
2022/12/21 09:13:04;;;;;;;23.02;13.80;;;11.10;84.30;;;;;;5096076;28;20143;-64
2022/12/21 09:15:30;;;;;;;23.10;13.73;;;11.10;84.20;;;;;;5096216;28;20023;-64
2022/12/21 09:17:56;;;;;;;20.00;12.27;;;11.20;84.30;;;;;;5108217;28;20055;-64
2022/12/21 09:20:22;;;;;;;25.85;14.32;;;11.30;84.10;;;;;;5102428;28;20067;-64
2022/12/21 09:22:47;;;;;;;21.35;12.65;;;11.40;83.90;;;;;;5107190;28;20060;-64
2022/12/21 09:25:13;;;;;;;23.25;12.27;;;11.40;83.80;;;;;;5093663;28;20044;-64
2022/12/21 09:27:39;;;;;;;21.48;12.98;;;11.40;83.70;;;;;;5105226;28;20064;-64
2022/12/21 09:30:06;;;;;;;21.65;12.65;;;11.40;83.60;;;;;;5108733;28;20038;-64
2022/12/21 09:32:33;;;;;;;20.80;11.95;;;11.40;83.60;;;;;;5114155;27;20024;-64
2022/12/21 09:34:59;;;;;;;22.08;11.88;;;11.40;83.60;;;;;;5113218;28;20023;-64
2022/12/21 09:37:25;;;;;;;18.88;12.60;;;11.40;83.50;;;;;;5096331;28;20436;-64
2022/12/21 09:39:51;;;;;;;19.67;11.32;;;11.30;83.40;;;;;;5103608;28;20487;-64
2022/12/21 09:42:48;;;;;;;19.73;11.75;;;11.40;83.50;;;;;;5105266;28;20027;-64
2022/12/21 09:45:39;;;;;;;16.20;10.27;;;11.30;83.40;;;;;;5118606;28;20048;-65
2022/12/21 09:48:11;;;;;;;19.90;10.90;;;11.30;83.40;;;;;;5105155;28;20028;-65
2022/12/21 09:50:44;;;;;;;16.08;10.60;;;11.30;83.60;;;;;;5106721;28;20054;-64
2022/12/21 09:53:25;;;;;;;19.58;11.23;;;11.30;83.60;;;;;;5089913;28;20424;-65
2022/12/21 09:55:54;;;;;;;22.20;11.93;;;11.30;83.60;;;;;;5101768;28;20071;-65
2022/12/21 09:58:28;;;;;;;22.50;12.30;;;11.30;83.60;;;;;;5105942;28;20344;-65
2022/12/21 10:01:04;;;;;;;19.08;10.85;;;11.30;83.60;;;;;;5095454;28;20035;-65
2022/12/21 10:03:59;;;;;;;19.45;11.18;;;11.30;83.50;;;;;;5094571;28;20035;-65
2022/12/21 10:06:51;;;;;;;18.63;11.60;;;11.30;83.50;;;;;;5117732;28;20415;-64
2022/12/21 10:09:28;;;;;;;;;;;11.30;83.50;;;;;;5102077;28;20036;-64
2022/12/21 10:12:09;;;;;;;18.40;10.38;;;11.30;83.50;;;;;;5099423;28;20323;-64
2022/12/21 10:14:55;;;;;;;;;;;11.30;83.50;;;;;;5101803;28;20036;-65
2022/12/21 10:17:21;;;;;;;15.95;8.93;;;11.30;83.50;;;;;;5074917;28;20002;-65
2022/12/21 10:20:22;;;;;;;19.27;10.38;;;11.20;84.10;;;;;;5097792;28;20492;-64
2022/12/21 10:22:50;;;;;;;16.75;10.40;;;11.30;83.50;;;;;;5089595;28;20032;-64
2022/12/21 10:25:21;;;;;;;19.50;10.20;;;11.20;83.50;;;;;;5110799;28;20038;-65
2022/12/21 10:27:55;;;;;;;19.85;10.02;;;11.30;83.50;;;;;;5107733;28;20024;-64
2022/12/21 10:30:21;;;;;;;21.38;10.75;;;11.20;83.40;;;;;;5110024;28;20032;-65
2022/12/21 10:32:50;;;;;;;18.40;10.98;;;11.20;83.40;;;;;;5108805;28;20450;-65
2022/12/21 10:35:41;;;;;;;21.45;11.48;;;11.20;83.50;;;;;;5106881;28;20440;-65
2022/12/21 10:38:15;;;;;;;25.33;11.88;;;11.20;83.50;;;;;;5112297;28;20035;-65
2022/12/21 10:40:44;;;;;;;20.98;11.45;;;11.20;83.40;;;;;;5112529;28;20069;-65
2022/12/21 10:43:12;;;;;;;18.80;11.07;;;11.20;83.50;;;;;;5115840;28;20084;-65
2022/12/21 10:45:38;;;;;;;23.02;11.52;;;11.20;83.40;;;;;;5096480;28;20016;-65
2022/12/21 10:48:04;;;;;;;20.50;11.75;;;11.20;83.40;;;;;;5103320;27;20028;-65
2022/12/21 10:50:37;;;;;;;21.67;11.57;;;11.30;83.40;;;;;;5113534;27;20050;-64
2022/12/21 10:53:24;;;;;;;22.80;11.65;;;11.20;83.30;;;;;;5098956;28;20023;-66
2022/12/21 10:55:55;;;;;;;23.02;12.60;;;11.20;83.20;;;;;;5103296;28;20028;-65
2022/12/21 10:58:31;;;;;;;20.35;11.73;;;11.20;83.30;;;;;;5123919;27;20031;-65
2022/12/21 11:01:20;;;;;;;24.90;12.45;;;11.20;83.30;;;;;;5114609;28;20416;-64
2022/12/21 11:04:06;;;;;;;21.48;10.85;;;11.30;83.30;;;;;;5096231;28;20038;-65
2022/12/21 11:06:32;;;;;;;19.88;12.25;;;11.20;83.20;;;;;;5096570;28;20031;-65
2022/12/21 11:08:57;;;;;;;19.90;12.38;;;11.20;83.20;;;;;;5095866;28;20387;-64
2022/12/21 11:11:35;;;;;;;20.33;12.52;;;11.20;83.20;;;;;;5096907;28;20067;-64
2022/12/21 11:14:19;;;;;;;19.00;12.65;;;11.30;83.30;;;;;;5107100;27;20102;-64
2022/12/21 11:16:45;;;;;;;25.70;13.65;;;11.20;83.20;;;;;;5097104;28;20166;-65
2022/12/21 11:19:21;;;;;;;27.33;13.98;;;11.30;83.30;;;;;;5095642;28;20064;-64
2022/12/21 11:21:53;;;;;;;24.95;14.75;;;11.30;83.20;;;;;;5101976;28;20472;-64
2022/12/21 11:24:27;;;;;;;26.35;16.27;;;11.30;83.20;;;;;;5115335;28;20038;-65
2022/12/21 11:26:58;;;;;;;25.30;15.32;;;11.40;83.20;;;;;;5107765;27;20110;-65
2022/12/21 11:29:30;;;;;;;24.50;15.70;;;11.50;83.10;;;;;;5103338;27;20047;-65
2022/12/21 11:32:06;;;;;;;29.77;17.40;;;11.50;83.00;;;;;;5098294;28;20309;-66
2022/12/21 11:35:03;;;;;;;29.80;17.15;;;11.50;82.80;;;;;;5113252;27;20031;-64
2022/12/21 11:37:44;;;;;;;27.38;17.95;;;11.60;82.80;;;;;;5105455;28;20048;-64
2022/12/21 11:40:22;;;;;;;26.80;17.20;;;11.60;82.70;;;;;;5126690;27;20103;-65
2022/12/21 11:42:59;;;;;;;27.65;17.20;;;11.70;82.70;;;;;;5109248;27;20452;-67
2022/12/21 11:45:54;;;;;;;31.95;17.83;;;11.80;82.60;;;;;;5097132;28;20341;-65
2022/12/21 11:48:57;;;;;;;26.33;16.65;;;11.80;82.50;;;;;;5105161;28;20035;-66
2022/12/21 11:51:43;;;;;;;26.95;17.10;;;11.80;82.40;;;;;;5107712;28;20104;-65
2022/12/21 11:54:17;;;;;;;27.50;17.45;;;11.90;82.40;;;;;;5116009;27;20047;-66
2022/12/21 11:56:50;;;;;;;31.52;17.77;;;11.80;82.30;;;;;;5104172;27;20031;-65
2022/12/21 11:59:32;;;;;;;29.10;16.45;;;11.80;82.20;;;;;;5109174;28;20039;-66
2022/12/21 12:02:29;;;;;;;24.45;16.77;;;11.90;82.20;;;;;;5111832;28;20088;-65
2022/12/21 12:04:58;;;;;;;25.85;15.70;;;11.90;82.10;;;;;;5030894;28;20132;-65
2022/12/21 12:07:55;;;;;;;24.70;15.40;;;11.90;82.20;;;;;;5015680;28;21685;-65
2022/12/21 12:10:48;;;;;;;23.55;14.95;;;11.90;82.10;;;;;;5032978;28;20478;-65
2022/12/21 12:13:40;;;;;;;22.55;13.77;;;11.90;82.10;;;;;;5015759;28;20035;-65
2022/12/21 12:16:27;;;;;;;21.52;12.50;;;11.90;82.10;;;;;;5022734;28;20485;-65
2022/12/21 12:19:09;;;;;;;19.98;11.93;;;11.90;82.10;;;;;;5013545;28;20494;-65
2022/12/21 12:21:43;;;;;;;19.95;12.05;;;11.80;82.10;;;;;;5017026;28;20037;-65
2022/12/21 12:24:32;;;;;;;18.15;11.15;;;11.80;82.10;;;;;;5014942;28;20033;-65
2022/12/21 12:27:09;;;;;;;18.20;10.98;;;11.80;82.00;;;;;;5027344;28;20041;-65
2022/12/21 12:29:57;;;;;;;20.10;11.00;;;11.80;82.00;;;;;;5018872;28;20045;-65
2022/12/21 12:32:46;;;;;;;15.30;10.38;;;11.80;82.00;;;;;;5015876;28;20038;-65
2022/12/21 12:35:24;;;;;;;20.92;9.95;;;11.80;82.00;;;;;;5015872;28;20069;-65
2022/12/21 12:38:00;;;;;;;17.63;9.80;;;11.80;81.90;;;;;;5032423;28;20034;-68
2022/12/21 12:40:38;;;;;;;18.40;10.57;;;11.80;81.90;;;;;;5033215;28;20144;-65
2022/12/21 12:43:25;;;;;;;15.70;8.95;;;11.80;81.90;;;;;;5114075;28;20043;-65
2022/12/21 12:46:00;;;;;;;17.08;10.60;;;11.80;81.90;;;;;;5097722;28;20460;-65
2022/12/21 12:48:49;;;;;;;17.92;10.50;;;11.70;81.90;;;;;;5114405;28;20070;-65
2022/12/21 12:51:50;;;;;;;19.85;10.80;;;11.70;81.80;;;;;;5096128;27;20028;-65
2022/12/21 12:54:21;;;;;;;17.73;10.18;;;11.70;81.70;;;;;;5107857;27;20039;-65
2022/12/21 12:57:17;;;;;;;21.65;10.75;;;11.70;81.70;;;;;;5102183;27;20046;-65
2022/12/21 12:59:46;;;;;;;15.82;10.18;;;11.70;82.30;;;;;;5098215;28;20077;-65
2022/12/21 13:02:25;;;;;;;16.63;10.55;;;11.70;81.60;;;;;;5105956;28;20027;-65
2022/12/21 13:05:06;;;;;;;17.48;10.55;;;11.70;81.60;;;;;;5097712;28;20035;-65